Time;durP1;ratioP1;P1;durP2;ratioP2;P2;SDS_P1;SDS_P2;PMS_P1;PMS_P2;Temp;Humidity;BMP_temperature;BMP_pressure;BME280_temperature;BME280_humidity;BME280_pressure;Samples;Min_cycle;Max_cycle;Signal;HPM_P1;HPM_P2
2023/09/02 00:00:10;;;;;;;42.28;32.10;;;;;;;16.67;100.00;101524.81;5070425;28;20086;-55
2023/09/02 00:02:40;;;;;;;41.53;30.35;;;;;;;16.63;100.00;101523.38;5070620;28;20049;-56
2023/09/02 00:05:09;;;;;;;40.65;30.83;;;;;;;16.61;100.00;101524.50;5072769;28;20102;-56
2023/09/02 00:07:37;;;;;;;37.63;29.58;;;;;;;16.61;100.00;101522.69;5072614;28;20059;-57
2023/09/02 00:10:06;;;;;;;37.28;30.05;;;;;;;16.59;100.00;101519.28;5072250;28;20682;-57
2023/09/02 00:12:36;;;;;;;42.13;31.52;;;;;;;16.52;100.00;101511.00;5068262;28;20048;-56
2023/09/02 00:15:04;;;;;;;39.28;31.27;;;;;;;16.45;100.00;101504.47;5069600;28;20503;-56
2023/09/02 00:17:33;;;;;;;37.05;28.75;;;;;;;16.42;100.00;101503.88;5068641;28;20052;-57
2023/09/02 00:20:02;;;;;;;38.72;29.75;;;;;;;16.41;100.00;101502.19;5068139;28;20054;-57
2023/09/02 00:22:31;;;;;;;40.83;29.73;;;;;;;16.43;100.00;101502.91;5067580;28;20052;-57
2023/09/02 00:24:59;;;;;;;37.42;28.73;;;;;;;16.39;100.00;101497.84;5069218;28;20602;-56
2023/09/02 00:27:27;;;;;;;34.75;27.17;;;;;;;16.39;100.00;101505.81;5069107;28;20048;-56
2023/09/02 00:29:57;;;;;;;35.58;27.10;;;;;;;16.36;100.00;101506.06;5070571;28;20044;-56
2023/09/02 00:32:25;;;;;;;33.30;25.10;;;;;;;16.37;100.00;101505.09;5068277;28;20092;-56
2023/09/02 00:34:53;;;;;;;33.50;25.40;;;;;;;16.36;100.00;101494.56;5072426;28;20536;-56
2023/09/02 00:37:21;;;;;;;33.95;25.35;;;;;;;16.32;100.00;101494.00;5066759;28;20049;-56
2023/09/02 00:39:50;;;;;;;34.30;25.88;;;;;;;16.27;100.00;101495.31;5068064;28;20518;-57
2023/09/02 00:42:20;;;;;;;32.30;25.13;;;;;;;16.25;100.00;101498.06;5068569;28;20052;-57
2023/09/02 00:44:50;;;;;;;33.33;25.38;;;;;;;16.21;100.00;101505.47;5068313;28;20139;-57
2023/09/02 00:47:20;;;;;;;34.00;25.30;;;;;;;16.12;100.00;101492.91;5068395;28;20067;-57
2023/09/02 00:49:49;;;;;;;38.85;27.08;;;;;;;16.12;100.00;101508.00;5068726;28;20079;-57
2023/09/02 00:52:19;;;;;;;34.63;25.33;;;;;;;16.10;100.00;101512.56;5069138;28;20522;-57
2023/09/02 00:54:47;;;;;;;37.75;27.02;;;;;;;16.02;100.00;101514.00;5072208;28;20102;-57
2023/09/02 00:57:15;;;;;;;39.00;28.48;;;;;;;15.97;100.00;101516.16;5070050;28;20495;-57
2023/09/02 00:59:43;;;;;;;35.45;26.48;;;;;;;16.01;100.00;101514.13;5068678;28;20156;-57
2023/09/02 01:02:13;;;;;;;34.92;26.73;;;;;;;15.97;100.00;101512.69;5068995;28;20040;-59
2023/09/02 01:04:44;;;;;;;36.47;27.33;;;;;;;15.96;100.00;101519.78;5068771;28;20432;-56
2023/09/02 01:07:13;;;;;;;36.05;26.83;;;;;;;15.91;100.00;101506.06;5067633;28;20052;-57
2023/09/02 01:09:44;;;;;;;35.78;27.45;;;;;;;15.91;100.00;101500.75;5068000;28;20522;-57
2023/09/02 01:12:14;;;;;;;33.42;25.77;;;;;;;15.90;100.00;101504.34;5071502;28;20032;-57
2023/09/02 01:14:43;;;;;;;35.85;26.55;;;;;;;15.88;100.00;101512.44;5072969;28;20127;-57
2023/09/02 01:17:11;;;;;;;38.38;27.80;;;;;;;15.84;100.00;101510.13;5076071;28;20048;-57
2023/09/02 01:19:41;;;;;;;40.63;26.92;;;;;;;15.82;100.00;101509.41;5074287;28;20444;-56
2023/09/02 01:22:31;;;;;;;36.70;26.70;;;;;;;15.83;100.00;101516.41;5071117;28;20059;-57
2023/09/02 01:25:21;;;;;;;33.97;26.27;;;;;;;15.82;100.00;101520.00;5073010;28;20087;-57
2023/09/02 01:27:56;;;;;;;37.17;27.33;;;;;;;15.84;100.00;101521.59;5072504;28;20127;-57
2023/09/02 01:30:27;;;;;;;36.67;26.48;;;;;;;15.83;100.00;101522.53;5072682;28;20523;-57
2023/09/02 01:32:58;;;;;;;39.50;27.88;;;;;;;15.86;100.00;101529.44;5072291;28;20094;-56
2023/09/02 01:35:30;;;;;;;36.17;27.95;;;;;;;15.82;100.00;101523.50;5072558;28;20052;-56
2023/09/02 01:37:59;;;;;;;41.13;28.20;;;;;;;15.83;100.00;101519.88;5071541;28;20036;-57
2023/09/02 01:40:29;;;;;;;39.22;29.20;;;;;;;15.83;100.00;101527.00;5074059;28;21010;-55
2023/09/02 01:43:00;;;;;;;37.10;26.58;;;;;;;15.82;100.00;101525.31;5075513;28;20812;-56
2023/09/02 01:45:32;;;;;;;39.65;28.75;;;;;;;15.83;100.00;101524.38;5075228;28;20080;-56
2023/09/02 01:48:00;;;;;;;38.40;27.45;;;;;;;15.84;100.00;101526.03;5072304;28;20162;-57
2023/09/02 01:50:31;;;;;;;37.55;26.55;;;;;;;15.86;100.00;101524.13;5072388;28;20049;-56
2023/09/02 01:53:00;;;;;;;38.72;27.00;;;;;;;15.87;100.00;101521.34;5070517;28;20039;-56
2023/09/02 01:55:28;;;;;;;38.22;27.42;;;;;;;15.89;100.00;101521.22;5072152;28;20127;-56
2023/09/02 01:57:59;;;;;;;40.05;28.23;;;;;;;15.90;100.00;101530.88;5072217;28;20040;-56
2023/09/02 02:00:27;;;;;;;36.53;26.05;;;;;;;15.92;100.00;101534.25;5072270;28;20037;-55
2023/09/02 02:02:56;;;;;;;36.20;26.33;;;;;;;15.97;100.00;101536.56;5071769;28;20041;-57
2023/09/02 02:05:32;;;;;;;35.15;26.00;;;;;;;15.94;100.00;101536.78;5071798;28;20064;-56
2023/09/02 02:08:05;;;;;;;35.88;26.38;;;;;;;15.91;100.00;101527.25;5071195;28;20036;-56
2023/09/02 02:10:36;;;;;;;36.25;26.70;;;;;;;15.93;100.00;101535.09;5071548;28;20072;-56
2023/09/02 02:13:06;;;;;;;36.47;26.88;;;;;;;15.97;100.00;101540.03;5074876;28;20040;-56
2023/09/02 02:15:34;;;;;;;34.30;25.02;;;;;;;15.94;100.00;101542.94;5074223;28;20091;-56
2023/09/02 02:18:03;;;;;;;36.08;25.73;;;;;;;15.92;100.00;101542.19;5071791;28;20372;-56
2023/09/02 02:20:39;;;;;;;37.30;27.20;;;;;;;15.93;100.00;101545.72;5071704;28;20537;-55
2023/09/02 02:23:08;;;;;;;34.97;26.05;;;;;;;15.97;100.00;101548.00;5070564;28;20514;-56
2023/09/02 02:25:36;;;;;;;37.50;26.92;;;;;;;15.99;100.00;101546.09;5074471;28;20055;-56
2023/09/02 02:28:06;;;;;;;39.22;26.27;;;;;;;15.99;100.00;101551.41;5074846;28;20461;-57
2023/09/02 02:30:34;;;;;;;41.67;27.05;;;;;;;16.02;100.00;101544.97;5074429;28;20048;-56
2023/09/02 02:33:03;;;;;;;44.63;27.85;;;;;;;16.01;100.00;101554.75;5071168;28;20040;-56
2023/09/02 02:35:34;;;;;;;38.13;26.95;;;;;;;15.98;100.00;101554.13;5070762;28;20102;-56
2023/09/02 02:38:02;;;;;;;41.85;27.67;;;;;;;16.01;100.00;101543.31;5070601;28;20738;-56
2023/09/02 02:40:31;;;;;;;39.33;26.38;;;;;;;16.01;100.00;101549.44;5071445;28;20419;-56
2023/09/02 02:43:00;;;;;;;41.75;26.77;;;;;;;16.00;100.00;101545.09;5071182;28;20032;-56
2023/09/02 02:45:32;;;;;;;39.25;25.52;;;;;;;16.01;100.00;101544.16;5071307;28;20061;-58
2023/09/02 02:48:01;;;;;;;41.10;25.42;;;;;;;16.05;100.00;101545.59;5071414;28;20078;-57
2023/09/02 02:50:29;;;;;;;41.88;27.02;;;;;;;16.04;100.00;101543.91;5071343;28;20036;-57
2023/09/02 02:52:57;;;;;;;40.45;27.08;;;;;;;16.06;100.00;101554.41;5069539;28;20051;-56
2023/09/02 02:55:26;;;;;;;42.88;26.08;;;;;;;16.10;100.00;101549.69;5071191;28;20044;-58
2023/09/02 02:57:54;;;;;;;41.83;26.80;;;;;;;16.12;100.00;101559.25;5072928;28;20098;-57
2023/09/02 03:00:22;;;;;;;46.13;27.35;;;;;;;16.18;100.00;101553.47;5071350;28;20053;-56
2023/09/02 03:02:53;;;;;;;44.58;27.63;;;;;;;16.17;100.00;101557.06;5070999;28;20045;-57
2023/09/02 03:05:21;;;;;;;48.20;28.48;;;;;;;16.15;100.00;101558.16;5071071;28;20091;-57
2023/09/02 03:07:49;;;;;;;46.40;28.65;;;;;;;16.14;100.00;101551.16;5069960;28;20045;-56
2023/09/02 03:10:18;;;;;;;48.22;28.88;;;;;;;16.21;100.00;101555.00;5071210;28;20048;-57
2023/09/02 03:12:46;;;;;;;53.58;30.45;;;;;;;16.18;100.00;101547.28;5070412;28;20120;-56
2023/09/02 03:15:14;;;;;;;52.25;30.15;;;;;;;16.19;100.00;101549.00;5071241;28;20041;-57
2023/09/02 03:17:42;;;;;;;57.70;30.95;;;;;;;16.13;100.00;101549.47;5073970;28;20638;-57
2023/09/02 03:20:12;;;;;;;55.03;31.55;;;;;;;16.16;100.00;101551.91;5072118;28;20059;-55
2023/09/02 03:22:41;;;;;;;57.13;30.70;;;;;;;16.09;100.00;101554.19;5067568;28;20040;-57
2023/09/02 03:25:10;;;;;;;57.92;30.35;;;;;;;16.09;100.00;101556.84;5070951;28;20048;-57
2023/09/02 03:27:38;;;;;;;54.60;31.17;;;;;;;16.05;100.00;101553.56;5070266;28;20041;-57
2023/09/02 03:30:07;;;;;;;54.33;30.10;;;;;;;16.04;100.00;101554.50;5070680;28;20048;-56
2023/09/02 03:32:36;;;;;;;68.45;31.95;;;;;;;16.09;100.00;101558.63;5071071;28;20352;-57
2023/09/02 03:35:07;;;;;;;53.97;31.02;;;;;;;16.08;100.00;101554.28;5072040;28;20068;-56
2023/09/02 03:37:37;;;;;;;59.90;32.20;;;;;;;16.09;100.00;101561.28;5068462;28;20059;-57
2023/09/02 03:40:07;;;;;;;54.65;30.70;;;;;;;16.11;100.00;101554.06;5073436;28;20501;-56
2023/09/02 03:42:35;;;;;;;55.28;31.20;;;;;;;16.05;100.00;101566.81;5072555;28;20151;-56
2023/09/02 03:45:04;;;;;;;58.88;32.10;;;;;;;16.08;100.00;101560.44;5070349;28;20096;-57
2023/09/02 03:47:33;;;;;;;56.00;31.80;;;;;;;16.09;100.00;101563.94;5070422;28;20067;-56
2023/09/02 03:50:01;;;;;;;54.42;29.65;;;;;;;16.04;100.00;101569.59;5070447;28;20140;-56
2023/09/02 03:52:29;;;;;;;58.47;31.33;;;;;;;16.03;100.00;101568.75;5068822;28;20550;-56
2023/09/02 03:55:00;;;;;;;57.17;30.45;;;;;;;16.09;100.00;101575.41;5069826;28;20048;-54
2023/09/02 03:57:28;;;;;;;59.92;31.45;;;;;;;16.09;100.00;101577.19;5069574;28;20048;-57
2023/09/02 03:59:56;;;;;;;56.95;30.17;;;;;;;16.11;100.00;101580.59;5069683;28;20041;-56
2023/09/02 04:02:24;;;;;;;58.67;31.02;;;;;;;16.12;100.00;101582.28;5069756;28;20381;-56
2023/09/02 04:04:52;;;;;;;58.38;31.90;;;;;;;16.13;100.00;101582.16;5069715;28;20044;-56
2023/09/02 04:07:21;;;;;;;60.00;30.88;;;;;;;16.11;100.00;101586.72;5068534;28;20044;-57
2023/09/02 04:09:49;;;;;;;65.47;31.20;;;;;;;16.12;100.00;101577.81;5071699;28;20040;-56
2023/09/02 04:12:18;;;;;;;51.58;30.10;;;;;;;16.15;100.00;101576.72;5069652;28;20525;-57
2023/09/02 04:14:47;;;;;;;52.17;30.80;;;;;;;16.12;100.00;101576.97;5071228;28;20052;-56
2023/09/02 04:17:17;;;;;;;54.95;30.60;;;;;;;16.12;100.00;101569.84;5072598;28;20075;-56
2023/09/02 04:19:45;;;;;;;55.85;30.95;;;;;;;16.14;100.00;101575.91;5072807;28;20055;-56
2023/09/02 04:22:15;;;;;;;61.90;30.10;;;;;;;16.14;100.00;101575.03;5067060;28;20056;-56
2023/09/02 04:24:43;;;;;;;51.67;29.95;;;;;;;16.13;100.00;101579.50;5070693;28;20476;-57
2023/09/02 04:27:11;;;;;;;52.63;29.70;;;;;;;16.17;100.00;101585.41;5072637;28;20480;-56
2023/09/02 04:29:41;;;;;;;57.80;31.27;;;;;;;16.19;100.00;101579.00;5071834;28;20655;-57
2023/09/02 04:32:09;;;;;;;56.20;29.80;;;;;;;16.15;100.00;101576.72;5071884;28;20041;-56
2023/09/02 04:34:40;;;;;;;53.97;30.38;;;;;;;16.18;100.00;101584.44;5071744;28;20458;-57
2023/09/02 04:37:11;;;;;;;53.35;31.23;;;;;;;16.17;100.00;101586.28;5067818;28;20052;-57
2023/09/02 04:39:40;;;;;;;63.08;31.35;;;;;;;16.20;100.00;101590.50;5070763;28;20051;-57
2023/09/02 04:42:08;;;;;;;57.50;31.52;;;;;;;16.19;100.00;101588.78;5072668;28;20048;-57
2023/09/02 04:44:36;;;;;;;48.83;29.17;;;;;;;16.16;100.00;101592.53;5069372;28;20098;-57
2023/09/02 04:47:06;;;;;;;56.38;31.33;;;;;;;16.18;100.00;101597.72;5029215;28;20060;-57
2023/09/02 04:49:34;;;;;;;56.67;29.73;;;;;;;16.18;100.00;101598.59;5029532;28;20045;-57
2023/09/02 04:52:03;;;;;;;53.13;30.08;;;;;;;16.18;100.00;101598.59;5032201;28;20046;-57
2023/09/02 04:54:32;;;;;;;54.78;30.33;;;;;;;16.18;100.00;101608.31;5030507;28;20651;-57
2023/09/02 04:57:00;;;;;;;54.17;31.15;;;;;;;16.14;100.00;101609.53;5029289;28;20045;-57
2023/09/02 04:59:28;;;;;;;56.10;32.22;;;;;;;16.17;100.00;101615.47;5029043;28;20038;-57
2023/09/02 05:01:56;;;;;;;57.05;29.38;;;;;;;16.19;100.00;101616.16;5029043;28;20045;-57
2023/09/02 05:04:26;;;;;;;50.83;30.15;;;;;;;16.18;100.00;101621.59;5028821;28;20480;-56
2023/09/02 05:06:54;;;;;;;51.20;30.77;;;;;;;16.18;100.00;101610.97;5029129;28;20053;-57
2023/09/02 05:09:22;;;;;;;48.35;29.40;;;;;;;16.20;100.00;101620.53;5028804;28;20103;-57
2023/09/02 05:11:51;;;;;;;52.60;31.63;;;;;;;16.19;100.00;101623.28;5028623;28;20053;-57
2023/09/02 05:14:19;;;;;;;53.00;32.15;;;;;;;16.22;100.00;101625.69;5029171;28;20051;-57
2023/09/02 05:16:47;;;;;;;52.10;31.88;;;;;;;16.23;100.00;101622.09;5028904;28;20560;-57
2023/09/02 05:19:15;;;;;;;56.53;31.70;;;;;;;16.21;100.00;101624.00;5028744;28;20050;-57
2023/09/02 05:21:46;;;;;;;58.10;34.22;;;;;;;16.24;100.00;101621.13;5027318;28;20057;-57
2023/09/02 05:24:14;;;;;;;67.10;33.97;;;;;;;16.26;100.00;101629.81;5028577;28;20396;-57
2023/09/02 05:26:42;;;;;;;57.83;33.00;;;;;;;16.28;100.00;101625.25;5031506;28;20045;-57
2023/09/02 05:29:10;;;;;;;63.05;34.03;;;;;;;16.29;100.00;101624.28;5032461;28;20068;-57
2023/09/02 05:31:38;;;;;;;60.47;34.67;;;;;;;16.34;100.00;101623.91;5032001;28;20412;-57
2023/09/02 05:34:06;;;;;;;65.40;35.70;;;;;;;16.32;100.00;101624.03;5031566;28;20042;-55
2023/09/02 05:36:35;;;;;;;61.40;33.28;;;;;;;16.33;100.00;101633.72;5028550;28;20203;-55
2023/09/02 05:39:04;;;;;;;62.30;34.10;;;;;;;16.32;100.00;101634.66;5027002;28;20046;-57
2023/09/02 05:41:32;;;;;;;64.05;34.58;;;;;;;16.36;100.00;101637.91;5029056;28;20060;-56
2023/09/02 05:44:00;;;;;;;64.10;34.70;;;;;;;16.38;100.00;101636.81;5029054;28;20128;-56
2023/09/02 05:46:28;;;;;;;59.97;33.90;;;;;;;16.41;100.00;101640.22;5059449;28;20542;-56
2023/09/02 05:48:57;;;;;;;58.72;32.60;;;;;;;16.41;100.00;101646.38;5068999;28;20488;-56
2023/09/02 05:51:25;;;;;;;59.85;34.05;;;;;;;16.42;100.00;101648.06;5068115;28;20044;-57
2023/09/02 05:53:56;;;;;;;59.90;32.75;;;;;;;16.45;100.00;101654.94;5068353;28;20114;-56
2023/09/02 05:56:25;;;;;;;63.15;34.33;;;;;;;16.49;100.00;101667.84;5068441;28;20044;-56
2023/09/02 05:58:53;;;;;;;55.85;33.10;;;;;;;16.44;100.00;101661.22;5069343;28;20054;-56
2023/09/02 06:01:21;;;;;;;73.03;35.22;;;;;;;16.48;100.00;101670.63;5073497;28;20055;-57
2023/09/02 06:03:49;;;;;;;64.45;34.33;;;;;;;16.50;100.00;101664.25;5073185;28;20514;-56
2023/09/02 06:06:18;;;;;;;63.10;34.15;;;;;;;16.54;100.00;101667.50;5072019;28;20048;-56
2023/09/02 06:08:46;;;;;;;57.42;33.45;;;;;;;16.56;100.00;101665.56;5070748;28;20044;-57
2023/09/02 06:11:15;;;;;;;52.40;30.42;;;;;;;16.57;100.00;101661.97;5072597;28;20060;-56
2023/09/02 06:13:44;;;;;;;56.00;32.78;;;;;;;16.55;100.00;101662.09;5073618;28;20387;-56
2023/09/02 06:16:13;;;;;;;52.42;32.20;;;;;;;16.54;100.00;101660.38;5075252;28;20110;-56
2023/09/02 06:18:41;;;;;;;52.17;31.73;;;;;;;16.53;100.00;101665.81;5074773;28;20491;-56
2023/09/02 06:21:11;;;;;;;47.90;30.35;;;;;;;16.53;100.00;101658.69;5074125;28;20054;-56
2023/09/02 06:23:41;;;;;;;50.15;30.45;;;;;;;16.55;100.00;101661.22;5074213;28;20526;-56
2023/09/02 06:26:11;;;;;;;51.58;30.98;;;;;;;16.56;100.00;101661.13;5075003;28;20051;-56
2023/09/02 06:28:40;;;;;;;54.08;30.10;;;;;;;16.60;100.00;101672.34;5072588;28;20275;-56
2023/09/02 06:31:11;;;;;;;49.10;30.42;;;;;;;16.57;100.00;101672.59;5071996;28;20499;-56
2023/09/02 06:33:39;;;;;;;53.53;31.42;;;;;;;16.52;100.00;101682.72;5072061;28;20488;-56
2023/09/02 06:36:11;;;;;;;50.30;30.45;;;;;;;16.60;100.00;101682.97;5074595;28;20056;-56
2023/09/02 06:38:39;;;;;;;53.80;30.35;;;;;;;16.66;100.00;101694.91;5074562;28;20043;-56
2023/09/02 06:41:11;;;;;;;48.22;28.90;;;;;;;16.57;100.00;101699.13;5072371;28;20083;-56
2023/09/02 06:43:40;;;;;;;51.70;29.85;;;;;;;16.57;100.00;101707.09;5070541;28;20131;-56
2023/09/02 06:46:15;;;;;;;49.83;30.73;;;;;;;16.63;100.00;101713.75;5071294;28;20060;-56
2023/09/02 06:48:44;;;;;;;51.00;30.20;;;;;;;16.63;100.00;101716.41;5071310;28;20075;-56
2023/09/02 06:51:12;;;;;;;48.13;29.25;;;;;;;16.63;100.00;101719.88;5070842;28;20819;-56
2023/09/02 06:53:41;;;;;;;48.75;29.60;;;;;;;16.68;100.00;101728.34;5069675;28;20127;-56
2023/09/02 06:56:11;;;;;;;49.75;31.58;;;;;;;16.71;100.00;101738.75;5071147;28;20403;-56
2023/09/02 06:58:44;;;;;;;51.67;30.75;;;;;;;16.79;100.00;101739.97;5074327;28;20044;-56
2023/09/02 07:01:22;;;;;;;50.33;29.88;;;;;;;16.77;100.00;101747.19;5072908;28;20436;-57
2023/09/02 07:03:55;;;;;;;48.67;31.48;;;;;;;16.78;100.00;101748.91;5071005;28;20125;-56
2023/09/02 07:06:24;;;;;;;46.65;28.20;;;;;;;16.79;100.00;101754.09;5073566;28;20072;-56
2023/09/02 07:08:52;;;;;;;40.42;28.02;;;;;;;16.75;100.00;101757.09;5069700;28;20044;-56
2023/09/02 07:11:20;;;;;;;37.65;26.55;;;;;;;16.76;100.00;101761.47;5070663;28;20051;-56
2023/09/02 07:13:48;;;;;;;33.25;24.05;;;;;;;16.77;100.00;101765.78;5070936;28;20132;-56
2023/09/02 07:16:16;;;;;;;34.20;25.85;;;;;;;16.84;100.00;101767.03;5070091;28;20488;-56
2023/09/02 07:18:46;;;;;;;31.30;23.77;;;;;;;16.83;100.00;101775.94;5070038;28;20048;-56
2023/09/02 07:21:14;;;;;;;32.33;23.48;;;;;;;16.86;100.00;101775.72;5072926;28;20047;-56
2023/09/02 07:23:42;;;;;;;32.30;24.42;;;;;;;16.90;100.00;101777.19;5073930;28;20060;-57
2023/09/02 07:26:10;;;;;;;32.88;24.55;;;;;;;16.89;100.00;101778.16;5073577;28;20036;-57
2023/09/02 07:28:40;;;;;;;31.35;22.58;;;;;;;16.98;100.00;101790.72;5071832;28;20454;-56
2023/09/02 07:31:08;;;;;;;32.88;22.73;;;;;;;16.92;100.00;101787.69;5068911;28;20052;-57
2023/09/02 07:33:37;;;;;;;28.45;22.73;;;;;;;16.95;100.00;101777.69;5069607;28;20082;-56
2023/09/02 07:36:10;;;;;;;28.58;22.15;;;;;;;16.99;100.00;101784.47;5071974;28;20049;-57
2023/09/02 07:38:41;;;;;;;28.02;21.73;;;;;;;17.12;100.00;101783.50;5073100;28;20056;-56
2023/09/02 07:41:09;;;;;;;26.75;19.77;;;;;;;17.14;100.00;101792.19;5073134;28;20090;-57
2023/09/02 07:43:38;;;;;;;25.08;19.50;;;;;;;17.25;100.00;101792.22;5070978;28;20125;-56
2023/09/02 07:46:06;;;;;;;23.77;18.80;;;;;;;17.28;100.00;101796.44;5070260;28;20060;-57
2023/09/02 07:48:34;;;;;;;23.90;19.13;;;;;;;17.36;100.00;101797.50;5072887;28;20075;-57
2023/09/02 07:51:02;;;;;;;28.60;19.92;;;;;;;17.34;100.00;101799.47;5072510;28;20048;-57
2023/09/02 07:53:32;;;;;;;28.20;21.08;;;;;;;17.37;100.00;101807.19;5070729;28;20047;-56
2023/09/02 07:56:00;;;;;;;25.27;19.38;;;;;;;17.39;100.00;101809.72;5069640;28;20541;-57
2023/09/02 07:58:29;;;;;;;27.23;19.88;;;;;;;17.52;100.00;101814.91;5069084;28;20047;-57
2023/09/02 08:00:57;;;;;;;25.73;19.63;;;;;;;17.49;100.00;101831.09;5069266;28;20059;-56
2023/09/02 08:03:26;;;;;;;24.80;18.60;;;;;;;17.57;100.00;101831.34;5069094;28;20051;-57
2023/09/02 08:05:56;;;;;;;24.52;18.65;;;;;;;17.71;100.00;101840.88;5068845;28;20123;-58
2023/09/02 08:08:24;;;;;;;24.80;18.88;;;;;;;17.75;100.00;101842.31;5067590;28;20053;-57
2023/09/02 08:11:03;;;;;;;25.98;20.55;;;;;;;17.76;100.00;101854.66;5069212;28;20044;-57
2023/09/02 08:13:31;;;;;;;23.88;17.90;;;;;;;17.81;100.00;101854.31;5068852;28;20082;-57
2023/09/02 08:16:00;;;;;;;25.55;18.73;;;;;;;17.85;100.00;101855.75;5069537;28;20064;-57
2023/09/02 08:18:28;;;;;;;26.95;19.83;;;;;;;17.82;100.00;101859.50;5070234;28;20064;-57
2023/09/02 08:20:56;;;;;;;27.10;19.35;;;;;;;17.89;100.00;101862.53;5069944;28;20044;-57
2023/09/02 08:23:24;;;;;;;24.95;17.85;;;;;;;17.88;100.00;101872.31;5066549;28;20131;-57
2023/09/02 08:25:52;;;;;;;25.27;18.85;;;;;;;17.90;100.00;101862.41;5068647;28;20044;-57
2023/09/02 08:28:22;;;;;;;25.13;19.00;;;;;;;17.91;100.00;101860.56;5068769;28;20033;-57
2023/09/02 08:30:50;;;;;;;24.42;18.48;;;;;;;17.95;100.00;101855.91;5068717;28;20048;-57
2023/09/02 08:33:18;;;;;;;27.83;20.15;;;;;;;17.92;100.00;101853.50;5069058;28;20056;-57
2023/09/02 08:35:47;;;;;;;25.73;18.10;;;;;;;18.02;100.00;101865.06;5070928;28;20052;-57
2023/09/02 08:38:15;;;;;;;27.42;20.48;;;;;;;18.13;100.00;101858.88;5071969;28;20044;-57
2023/09/02 08:40:44;;;;;;;24.23;17.75;;;;;;;18.12;100.00;101850.06;5070743;28;20056;-57
2023/09/02 08:43:14;;;;;;;25.27;18.58;;;;;;;18.25;100.00;101857.88;5068436;28;20052;-57
2023/09/02 08:45:50;;;;;;;22.65;17.17;;;;;;;18.23;100.00;101855.34;5069642;28;20403;-57
2023/09/02 08:48:24;;;;;;;25.90;17.30;;;;;;;18.34;100.00;101850.97;5069828;28;20049;-57
2023/09/02 08:50:55;;;;;;;25.27;19.13;;;;;;;18.48;100.00;101842.66;5080129;28;20098;-57
2023/09/02 08:53:27;;;;;;;22.95;18.42;;;;;;;18.61;100.00;101837.16;5067871;28;20392;-57
2023/09/02 08:55:56;;;;;;;23.33;17.15;;;;;;;18.59;100.00;101829.28;5073593;28;20059;-53
2023/09/02 08:58:26;;;;;;;21.98;17.00;;;;;;;18.64;100.00;101833.38;5086784;28;20059;-55
2023/09/02 09:00:59;;;;;;;21.48;17.67;;;;;;;18.68;100.00;101843.66;5086922;28;20044;-54
2023/09/02 09:03:30;;;;;;;25.02;16.77;;;;;;;18.90;100.00;101833.88;5082574;28;20475;-56
2023/09/02 09:06:02;;;;;;;22.35;18.10;;;;;;;18.96;100.00;101840.50;5084111;28;20403;-53
2023/09/02 09:08:32;;;;;;;22.00;15.93;;;;;;;19.02;100.00;101839.97;5069723;28;20041;-55
2023/09/02 09:11:02;;;;;;;22.88;17.38;;;;;;;19.20;100.00;101845.56;5067910;28;20052;-56
2023/09/02 09:13:30;;;;;;;21.10;15.93;;;;;;;19.28;100.00;101847.56;5087284;28;20064;-53
2023/09/02 09:16:01;;;;;;;21.48;15.45;;;;;;;19.28;100.00;101847.56;5077209;28;20040;-55
2023/09/02 09:18:30;;;;;;;20.55;15.65;;;;;;;19.36;100.00;101858.41;5065907;28;20074;-55
2023/09/02 09:20:58;;;;;;;20.30;15.40;;;;;;;19.36;100.00;101861.94;5067840;28;20047;-55
2023/09/02 09:23:27;;;;;;;19.95;15.13;;;;;;;19.40;100.00;101879.34;5074997;28;20047;-55
2023/09/02 09:25:57;;;;;;;19.52;14.95;;;;;;;19.55;100.00;101889.66;5079544;28;20040;-55
2023/09/02 09:28:25;;;;;;;22.17;16.20;;;;;;;19.70;100.00;101890.13;5078121;28;20051;-56
2023/09/02 09:30:53;;;;;;;22.10;16.55;;;;;;;19.79;100.00;101897.34;5076975;28;20042;-55
2023/09/02 09:33:23;;;;;;;21.85;16.77;;;;;;;19.87;100.00;101902.88;5076760;28;20044;-55
2023/09/02 09:35:52;;;;;;;23.75;18.15;;;;;;;19.92;100.00;101903.31;5079808;28;20028;-55
2023/09/02 09:38:21;;;;;;;19.23;15.30;;;;;;;19.83;100.00;101908.63;5085360;28;20048;-55
2023/09/02 09:40:50;;;;;;;19.63;15.23;;;;;;;19.98;100.00;101907.28;5082216;28;20056;-55
2023/09/02 09:43:23;;;;;;;19.45;14.80;;;;;;;20.09;100.00;101919.66;5088229;28;20052;-56
2023/09/02 09:45:52;;;;;;;18.15;14.13;;;;;;;20.20;100.00;101916.03;5086050;28;20125;-55
2023/09/02 09:48:23;;;;;;;18.20;14.38;;;;;;;20.30;100.00;101919.59;5079928;28;20127;-55
2023/09/02 09:50:51;;;;;;;17.20;13.13;;;;;;;20.26;100.00;101923.50;5081726;28;20127;-56
2023/09/02 09:53:20;;;;;;;16.67;12.85;;;;;;;20.38;100.00;101918.88;5076474;28;20044;-56
2023/09/02 09:55:49;;;;;;;17.90;14.32;;;;;;;20.62;100.00;101920.31;5082221;28;20530;-56
2023/09/02 09:58:23;;;;;;;20.20;15.55;;;;;;;20.71;100.00;101928.38;5076429;28;20048;-56
2023/09/02 10:00:52;;;;;;;18.10;13.70;;;;;;;20.72;100.00;101930.06;5082877;28;20435;-56
2023/09/02 10:03:31;;;;;;;18.02;13.85;;;;;;;21.02;100.00;101927.38;5082071;28;20101;-56
2023/09/02 10:06:00;;;;;;;17.58;13.05;;;;;;;21.17;100.00;101935.78;5081763;28;20045;-56
2023/09/02 10:08:29;;;;;;;16.60;13.23;;;;;;;21.17;100.00;101946.47;5073417;28;20052;-56
2023/09/02 10:10:57;;;;;;;17.05;13.02;;;;;;;21.36;100.00;101946.44;5078698;28;20043;-57
2023/09/02 10:13:27;;;;;;;18.15;13.32;;;;;;;21.33;100.00;101941.38;5079065;28;20041;-56
2023/09/02 10:15:57;;;;;;;19.80;14.02;;;;;;;21.34;100.00;101948.44;5078137;28;20033;-56
2023/09/02 10:18:28;;;;;;;17.35;13.85;;;;;;;21.52;100.00;101947.69;5073544;28;20137;-65
2023/09/02 10:20:58;;;;;;;15.80;12.68;;;;;;;21.66;100.00;101951.75;5078873;28;20032;-66
2023/09/02 10:23:27;;;;;;;15.80;13.00;;;;;;;21.70;100.00;101962.00;5072455;28;20067;-65
2023/09/02 10:26:01;;;;;;;17.67;13.23;;;;;;;21.65;100.00;101950.91;5076669;28;20045;-65
2023/09/02 10:28:37;;;;;;;14.23;11.65;;;;;;;21.73;100.00;101953.72;5072754;28;20079;-66
2023/09/02 10:31:12;;;;;;;16.58;13.40;;;;;;;21.70;100.00;101962.00;5070377;28;20041;-65
2023/09/02 10:33:50;;;;;;;16.63;12.75;;;;;;;21.79;100.00;101968.34;5079767;28;20094;-65
2023/09/02 10:36:24;;;;;;;16.92;12.95;;;;;;;21.84;100.00;101965.19;5074184;28;20404;-65
2023/09/02 10:38:53;;;;;;;15.38;12.45;;;;;;;21.71;100.00;101965.53;5073721;28;20063;-65
2023/09/02 10:41:25;;;;;;;15.65;12.80;;;;;;;21.85;100.00;101966.91;5069833;28;20512;-66
2023/09/02 10:43:55;;;;;;;16.67;13.55;;;;;;;21.75;100.00;101973.13;5067693;28;20056;-65
2023/09/02 10:46:25;;;;;;;16.17;12.48;;;;;;;21.61;100.00;101974.44;5077226;28;20056;-65
2023/09/02 10:48:54;;;;;;;15.32;12.73;;;;;;;21.57;100.00;101973.03;5079601;28;20056;-66
2023/09/02 10:51:24;;;;;;;13.75;12.20;;;;;;;21.57;100.00;101980.25;5072312;28;20052;-66
2023/09/02 10:54:01;;;;;;;13.70;11.27;;;;;;;21.65;100.00;101980.34;5068459;28;20135;-66
2023/09/02 10:56:32;;;;;;;13.65;11.82;;;;;;;21.72;100.00;101973.44;5073094;28;20048;-66
2023/09/02 10:59:02;;;;;;;14.70;11.63;;;;;;;21.99;100.00;101981.63;5078525;28;20063;-68
2023/09/02 11:01:44;;;;;;;13.73;11.15;;;;;;;21.91;100.00;101980.53;5073840;28;20048;-68
2023/09/02 11:04:13;;;;;;;14.07;11.87;;;;;;;21.79;100.00;101992.44;5073309;28;20040;-67
2023/09/02 11:07:27;;;;;;;14.48;12.32;;;;;;;21.81;100.00;101982.41;5071199;28;20179;-67
2023/09/02 11:09:59;;;;;;;15.23;12.00;;;;;;;21.89;100.00;101979.00;5036260;28;20048;-67
2023/09/02 11:12:28;;;;;;;15.60;12.13;;;;;;;22.08;100.00;101983.44;5057663;28;20044;-68